createdAt,value
2022-09-15T00:01:29.482Z,17.80
2022-09-15T00:03:57.639Z,17.81
2022-09-15T00:06:25.710Z,17.81
2022-09-15T00:08:54.805Z,17.79
2022-09-15T00:11:26.666Z,17.77
2022-09-15T00:13:56.683Z,17.77
2022-09-15T00:16:26.904Z,17.80
2022-09-15T00:18:55.180Z,17.76
2022-09-15T00:21:26.529Z,17.72
2022-09-15T00:23:55.386Z,17.69
2022-09-15T00:26:27.178Z,17.67
2022-09-15T00:28:57.620Z,17.66
2022-09-15T00:31:28.121Z,17.67
2022-09-15T00:33:59.694Z,17.67
2022-09-15T00:36:27.780Z,17.67
2022-09-15T00:38:58.293Z,17.66
2022-09-15T00:41:26.869Z,17.66
2022-09-15T00:43:58.219Z,17.69
2022-09-15T00:46:33.048Z,17.68
2022-09-15T00:49:03.884Z,17.66
2022-09-15T00:51:59.706Z,17.65
2022-09-15T00:54:48.872Z,17.63
2022-09-15T00:57:26.774Z,17.61
2022-09-15T00:59:57.815Z,17.61
2022-09-15T01:02:33.211Z,17.57
2022-09-15T01:05:05.322Z,17.55
2022-09-15T01:07:59.715Z,17.53
2022-09-15T01:10:34.235Z,17.52
2022-09-15T01:13:05.692Z,17.53
2022-09-15T01:15:39.594Z,17.51
2022-09-15T01:18:42.994Z,17.51
2022-09-15T01:21:38.754Z,17.50
2022-09-15T01:24:33.067Z,17.51
2022-09-15T01:27:24.394Z,17.52
2022-09-15T01:29:58.324Z,17.47
2022-09-15T01:33:04.214Z,17.40
2022-09-15T01:35:58.369Z,17.33
2022-09-15T01:38:35.552Z,17.30
2022-09-15T01:41:27.075Z,17.26
2022-09-15T01:44:01.089Z,17.21
2022-09-15T01:46:33.456Z,17.19
2022-09-15T01:49:03.987Z,17.20
2022-09-15T01:51:34.924Z,17.21
2022-09-15T01:54:05.967Z,17.24
2022-09-15T01:56:37.312Z,17.22
2022-09-15T01:59:06.175Z,17.21
2022-09-15T02:01:50.038Z,17.21
2022-09-15T02:04:28.048Z,17.21
2022-09-15T02:07:11.891Z,17.24
2022-09-15T02:09:54.912Z,17.25
2022-09-15T02:12:45.511Z,17.27
2022-09-15T02:15:29.359Z,17.28
2022-09-15T02:17:59.473Z,17.25
2022-09-15T02:20:48.637Z,17.31
2022-09-15T02:23:27.789Z,17.32
2022-09-15T02:26:06.796Z,17.32
2022-09-15T02:28:39.070Z,17.32
2022-09-15T02:31:11.177Z,17.32
2022-09-15T02:33:45.347Z,17.33
2022-09-15T02:36:18.443Z,17.33
2022-09-15T02:38:54.495Z,17.33
2022-09-15T02:41:23.898Z,17.33
2022-09-15T02:43:52.611Z,17.30
2022-09-15T02:46:22.705Z,17.32
2022-09-15T02:48:50.978Z,17.32
2022-09-15T02:51:19.257Z,17.30
2022-09-15T02:53:47.531Z,17.30
2022-09-15T02:56:16.935Z,17.30
2022-09-15T02:58:45.520Z,17.33
2022-09-15T03:01:15.870Z,17.35
2022-09-15T03:03:45.616Z,17.34
2022-09-15T03:06:17.215Z,17.34
2022-09-15T03:08:52.335Z,17.34
2022-09-15T03:11:23.896Z,17.35
2022-09-15T03:13:57.805Z,17.38
2022-09-15T03:16:28.803Z,17.32
2022-09-15T03:18:59.783Z,17.29
2022-09-15T03:21:30.214Z,17.30
2022-09-15T03:23:59.162Z,17.31
2022-09-15T03:26:27.377Z,17.24
2022-09-15T03:28:55.859Z,17.20
2022-09-15T03:31:24.090Z,17.21
2022-09-15T03:33:55.175Z,17.22
2022-09-15T03:36:23.350Z,17.24
2022-09-15T03:38:51.595Z,17.25
2022-09-15T03:41:19.904Z,17.15
2022-09-15T03:43:48.179Z,17.14
2022-09-15T03:46:16.601Z,17.16
2022-09-15T03:48:44.855Z,17.18
2022-09-15T03:51:13.542Z,17.21
2022-09-15T03:53:42.495Z,17.21
2022-09-15T03:56:12.426Z,17.23
2022-09-15T03:58:40.910Z,17.25
2022-09-15T04:01:09.613Z,17.28
2022-09-15T04:03:44.173Z,17.35
2022-09-15T04:06:15.361Z,17.36
2022-09-15T04:08:43.958Z,17.37
2022-09-15T04:11:13.491Z,17.38
2022-09-15T04:13:42.643Z,17.38
2022-09-15T04:16:16.680Z,17.41
2022-09-15T04:18:45.446Z,17.44
2022-09-15T04:21:16.283Z,17.43
2022-09-15T04:23:45.258Z,17.43
2022-09-15T04:26:36.700Z,17.41
2022-09-15T04:29:11.630Z,17.44
2022-09-15T04:31:40.034Z,17.45
2022-09-15T04:34:08.282Z,17.42
2022-09-15T04:36:36.557Z,17.43
2022-09-15T04:39:06.881Z,17.42
2022-09-15T04:41:35.159Z,17.43
2022-09-15T04:44:03.435Z,17.46
2022-09-15T04:46:31.745Z,17.46
2022-09-15T04:49:00.293Z,17.45
2022-09-15T04:51:28.571Z,17.45
2022-09-15T04:53:56.745Z,17.46
2022-09-15T04:56:26.801Z,17.50
2022-09-15T04:59:03.269Z,17.47
2022-09-15T05:01:34.627Z,17.44
2022-09-15T05:04:04.270Z,17.42
2022-09-15T05:06:35.225Z,17.41
2022-09-15T05:09:10.070Z,17.46
2022-09-15T05:11:38.946Z,17.47
2022-09-15T05:14:08.348Z,17.46
2022-09-15T05:16:36.612Z,17.46
2022-09-15T05:19:05.114Z,17.47
2022-09-15T05:21:33.286Z,17.53
2022-09-15T05:24:02.242Z,17.53
2022-09-15T05:26:30.938Z,17.52
2022-09-15T05:29:06.712Z,17.53
2022-09-15T05:31:35.294Z,17.51
2022-09-15T05:34:05.826Z,17.54
2022-09-15T05:36:34.407Z,17.53
2022-09-15T05:39:02.607Z,17.51
2022-09-15T05:41:31.368Z,17.50
2022-09-15T05:43:59.542Z,17.51
2022-09-15T05:46:29.550Z,17.56
2022-09-15T05:48:59.487Z,17.60
2022-09-15T05:51:28.057Z,17.62
2022-09-15T05:53:56.810Z,17.61
2022-09-15T05:56:25.121Z,17.62
2022-09-15T05:58:53.339Z,17.63
2022-09-15T06:01:26.966Z,17.64
2022-09-15T06:03:56.511Z,17.65
2022-09-15T06:06:26.315Z,17.65
2022-09-15T06:08:58.764Z,17.68
2022-09-15T06:11:34.131Z,17.72
2022-09-15T06:14:04.260Z,17.73
2022-09-15T06:16:35.262Z,17.73
2022-09-15T06:19:04.227Z,17.71
2022-09-15T06:21:33.511Z,17.73
2022-09-15T06:24:04.656Z,17.78
2022-09-15T06:26:33.481Z,17.79
2022-09-15T06:29:05.229Z,17.77
2022-09-15T06:31:35.952Z,17.76
2022-09-15T06:34:10.450Z,17.77
2022-09-15T06:36:39.324Z,17.81
2022-09-15T06:39:08.827Z,17.79
2022-09-15T06:42:00.828Z,17.76
2022-09-15T06:44:27.925Z,17.73
2022-09-15T06:46:55.976Z,17.74
2022-09-15T06:49:24.355Z,17.77
2022-09-15T06:51:52.528Z,17.75
2022-09-15T06:54:20.704Z,17.72
2022-09-15T06:56:49.081Z,17.68
2022-09-15T06:59:17.665Z,17.69
2022-09-15T07:01:55.537Z,17.73
2022-09-15T07:04:23.753Z,17.76
2022-09-15T07:06:51.921Z,17.74
2022-09-15T07:09:19.985Z,17.73
2022-09-15T07:11:48.058Z,17.73
2022-09-15T07:14:16.128Z,17.69
2022-09-15T07:16:44.439Z,17.58
2022-09-15T07:19:12.793Z,17.43
2022-09-15T07:21:40.877Z,17.29
2022-09-15T07:24:10.862Z,17.26
2022-09-15T07:26:39.045Z,17.25
2022-09-15T07:29:07.528Z,17.20
2022-09-15T07:31:38.361Z,17.11
2022-09-15T07:34:07.355Z,17.03
2022-09-15T07:36:36.043Z,16.95
2022-09-15T07:39:05.770Z,16.89
2022-09-15T07:41:34.130Z,16.84
2022-09-15T07:44:03.001Z,16.80
2022-09-15T07:46:32.609Z,16.79
2022-09-15T07:49:03.393Z,16.82
2022-09-15T07:51:31.743Z,16.84
2022-09-15T07:54:00.735Z,16.85
2022-09-15T07:56:29.217Z,16.84
2022-09-15T07:58:57.894Z,16.78
2022-09-15T08:01:26.406Z,16.77
2022-09-15T08:03:54.781Z,16.78
2022-09-15T08:06:24.776Z,16.72
2022-09-15T08:08:57.729Z,16.68
2022-09-15T08:11:28.474Z,16.69
2022-09-15T08:13:56.986Z,16.72
2022-09-15T08:16:25.454Z,16.75
2022-09-15T08:18:54.653Z,16.74
2022-09-15T08:21:23.958Z,16.71
2022-09-15T08:23:57.558Z,16.70
2022-09-15T08:26:27.721Z,16.72
2022-09-15T08:28:55.851Z,16.72
2022-09-15T08:31:24.796Z,16.68
2022-09-15T08:33:55.290Z,16.59
2022-09-15T08:36:24.878Z,16.58
2022-09-15T08:38:53.153Z,16.64
2022-09-15T08:41:24.427Z,16.63
2022-09-15T08:44:05.829Z,16.61
2022-09-15T08:47:08.364Z,16.58
2022-09-15T08:49:58.861Z,16.56
2022-09-15T08:52:39.426Z,16.57
2022-09-15T08:55:17.765Z,16.52
2022-09-15T08:57:46.013Z,16.51
2022-09-15T09:00:16.847Z,16.54
2022-09-15T09:03:30.182Z,16.54
2022-09-15T09:06:00.984Z,16.49
2022-09-15T09:08:47.727Z,16.50
2022-09-15T09:11:33.932Z,16.51
2022-09-15T09:14:18.173Z,16.53
2022-09-15T09:17:12.664Z,16.50
2022-09-15T09:20:12.274Z,16.47
2022-09-15T09:22:44.237Z,16.53
2022-09-15T09:25:27.129Z,16.54
2022-09-15T09:27:58.614Z,16.50
2022-09-15T09:30:32.625Z,16.42
2022-09-15T09:33:24.961Z,16.38
2022-09-15T09:35:53.541Z,16.37
2022-09-15T09:38:26.733Z,16.37
2022-09-15T09:40:57.573Z,16.39
2022-09-15T09:43:30.211Z,16.43
2022-09-15T09:45:59.527Z,16.49
2022-09-15T09:48:29.018Z,16.52
2022-09-15T09:50:57.535Z,16.57
2022-09-15T09:53:33.494Z,16.57
2022-09-15T09:56:25.013Z,16.54
2022-09-15T09:58:54.836Z,16.59
2022-09-15T10:01:26.316Z,16.60
2022-09-15T10:04:18.103Z,16.57
2022-09-15T10:06:46.823Z,16.56
2022-09-15T10:09:19.665Z,16.58
2022-09-15T10:11:53.072Z,16.62
2022-09-15T10:14:38.988Z,16.62
2022-09-15T10:17:13.177Z,16.61
2022-09-15T10:19:58.966Z,16.62
2022-09-15T10:22:36.542Z,16.69
2022-09-15T10:25:39.468Z,16.74
2022-09-15T10:28:18.573Z,16.71
2022-09-15T10:31:01.906Z,16.66
2022-09-15T10:33:35.315Z,16.71
2022-09-15T10:36:06.841Z,16.78
2022-09-15T10:38:45.983Z,16.79
2022-09-15T10:41:20.997Z,16.80
2022-09-15T10:44:34.351Z,16.85
2022-09-15T10:47:33.244Z,16.92
2022-09-15T10:50:01.631Z,16.96
2022-09-15T10:53:07.480Z,16.97
2022-09-15T10:56:23.682Z,17.01
2022-09-15T10:59:10.592Z,17.11
2022-09-15T11:01:58.469Z,17.16
2022-09-15T11:04:42.884Z,17.19
2022-09-15T11:07:26.622Z,17.15
2022-09-15T11:10:10.874Z,17.19
2022-09-15T11:12:46.419Z,17.21
2022-09-15T11:15:49.592Z,17.21
2022-09-15T11:18:51.376Z,17.22
2022-09-15T11:21:46.275Z,17.22
2022-09-15T11:24:48.651Z,17.30
2022-09-15T11:27:19.691Z,17.38
2022-09-15T11:29:48.105Z,17.47
2022-09-15T11:32:25.461Z,17.58
2022-09-15T11:35:02.133Z,17.69
2022-09-15T11:37:38.806Z,17.81
2022-09-15T11:40:25.582Z,17.86
2022-09-15T11:43:00.857Z,17.91
2022-09-15T11:45:34.560Z,17.95
2022-09-15T11:48:15.227Z,18.02
2022-09-15T11:50:47.192Z,18.15
2022-09-15T11:53:35.843Z,18.15
2022-09-15T11:56:29.413Z,18.21
2022-09-15T11:59:27.098Z,18.24
2022-09-15T12:02:04.530Z,18.32
2022-09-15T12:04:39.074Z,18.37
2022-09-15T12:07:23.446Z,18.34
2022-09-15T12:09:51.830Z,18.31
2022-09-15T12:12:21.943Z,18.36
2022-09-15T12:14:53.490Z,18.43
2022-09-15T12:17:45.735Z,18.49
2022-09-15T12:20:36.231Z,18.54
2022-09-15T12:23:34.799Z,18.63
2022-09-15T12:26:19.068Z,18.67
2022-09-15T12:28:47.040Z,18.69
2022-09-15T12:31:28.297Z,18.75
2022-09-15T12:34:03.865Z,18.79
2022-09-15T12:36:33.928Z,18.77
2022-09-15T12:39:06.047Z,18.78
2022-09-15T12:41:34.225Z,18.77
2022-09-15T12:44:18.373Z,18.79
2022-09-15T12:46:58.427Z,18.83
2022-09-15T12:49:34.381Z,18.93
2022-09-15T12:52:08.187Z,18.98
2022-09-15T12:54:40.049Z,18.97
2022-09-15T12:57:20.816Z,18.96
2022-09-15T12:59:48.990Z,18.94
2022-09-15T13:02:46.295Z,18.95
2022-09-15T13:05:37.141Z,18.97
2022-09-15T13:08:15.669Z,18.98
2022-09-15T13:11:11.288Z,18.92
2022-09-15T13:14:16.941Z,18.86
2022-09-15T13:17:01.371Z,18.79
2022-09-15T13:19:41.752Z,18.75
2022-09-15T13:22:09.929Z,18.75
2022-09-15T13:25:06.061Z,18.73
2022-09-15T13:27:42.114Z,18.69
2022-09-15T13:30:26.572Z,18.66
2022-09-15T13:32:57.509Z,18.64
2022-09-15T13:35:34.183Z,18.64
2022-09-15T13:38:23.780Z,18.62
2022-09-15T13:41:16.508Z,18.63
2022-09-15T13:44:15.177Z,18.64
2022-09-15T13:47:01.496Z,18.63
2022-09-15T13:50:12.574Z,18.68
2022-09-15T13:53:05.053Z,18.72
2022-09-15T13:55:39.526Z,18.71
2022-09-15T14:01:05.839Z,18.79
2022-09-15T14:03:37.547Z,18.80
2022-09-15T14:06:15.680Z,18.84
2022-09-15T14:08:48.387Z,18.84
2022-09-15T14:11:21.922Z,18.82
2022-09-15T14:13:51.623Z,18.79
2022-09-15T14:16:28.081Z,18.77
2022-09-15T14:18:58.639Z,18.76
2022-09-15T14:21:29.979Z,18.78
2022-09-15T14:24:00.698Z,18.75
2022-09-15T14:26:30.946Z,18.70
2022-09-15T14:29:01.678Z,18.69
2022-09-15T14:31:41.193Z,18.70
2022-09-15T14:34:21.987Z,18.72
2022-09-15T14:37:08.083Z,18.75
2022-09-15T14:39:37.999Z,18.73
2022-09-15T14:42:30.957Z,18.74
2022-09-15T14:48:07.330Z,18.73
2022-09-15T14:50:35.929Z,18.72
2022-09-15T14:53:24.987Z,18.75
2022-09-15T14:56:08.526Z,18.76
2022-09-15T14:58:48.061Z,18.75
2022-09-15T15:01:28.270Z,18.75
2022-09-15T15:04:03.255Z,18.73
2022-09-15T15:06:34.187Z,18.71
2022-09-15T15:09:23.764Z,18.71
2022-09-15T15:11:55.519Z,18.67
2022-09-15T15:17:08.395Z,18.62
2022-09-15T15:19:41.852Z,18.58
2022-09-15T15:22:21.294Z,18.56
2022-09-15T15:24:52.626Z,18.58
2022-09-15T15:27:32.691Z,18.56
2022-09-15T15:30:29.844Z,18.53
2022-09-15T15:33:01.503Z,18.51
2022-09-15T15:35:31.107Z,18.50
2022-09-15T15:38:05.529Z,18.52
2022-09-15T15:40:36.139Z,18.50
2022-09-15T15:43:16.324Z,18.43
2022-09-15T15:46:02.378Z,18.41
2022-09-15T15:48:38.320Z,18.34
2022-09-15T15:51:07.858Z,18.34
2022-09-15T15:53:35.867Z,18.36
2022-09-15T15:56:04.523Z,18.36
2022-09-15T15:58:32.498Z,18.32
2022-09-15T16:01:01.086Z,18.31
2022-09-15T16:03:29.163Z,18.32
2022-09-15T16:05:59.559Z,18.34
2022-09-15T16:08:40.343Z,18.37
2022-09-15T16:11:12.191Z,18.36
2022-09-15T16:13:40.685Z,18.31
2022-09-15T16:16:19.693Z,18.25
2022-09-15T16:18:49.160Z,18.19
2022-09-15T16:21:21.591Z,18.16
2022-09-15T16:23:49.660Z,18.16
2022-09-15T16:26:24.184Z,18.13
2022-09-15T16:28:52.665Z,18.08
2022-09-15T16:31:20.911Z,18.05
2022-09-15T16:33:49.934Z,18.01
2022-09-15T16:36:18.517Z,18.01
2022-09-15T16:38:46.588Z,18.03
2022-09-15T16:41:17.323Z,18.03
2022-09-15T16:43:46.725Z,18.01
2022-09-15T16:46:15.791Z,18.00
2022-09-15T16:48:44.602Z,18.00
2022-09-15T16:51:27.988Z,17.98
2022-09-15T16:53:58.059Z,18.01
2022-09-15T16:56:27.187Z,17.99
2022-09-15T16:59:00.083Z,17.98
2022-09-15T17:01:29.240Z,17.98
2022-09-15T17:03:57.819Z,17.98
2022-09-15T17:06:25.993Z,18.03
2022-09-15T17:08:54.603Z,18.03
2022-09-15T17:11:25.923Z,18.03
2022-09-15T17:13:54.662Z,18.02
2022-09-15T17:16:23.127Z,17.93
2022-09-15T17:18:51.368Z,17.82
2022-09-15T17:21:20.051Z,17.74
2022-09-15T17:23:49.937Z,17.57
2022-09-15T17:26:22.032Z,17.44
2022-09-15T17:28:51.116Z,17.42
2022-09-15T17:31:22.848Z,17.43
2022-09-15T17:33:51.570Z,17.43
2022-09-15T17:36:20.154Z,17.43
2022-09-15T17:38:51.398Z,17.38
2022-09-15T17:41:22.646Z,17.32
2022-09-15T17:43:52.099Z,17.35
2022-09-15T17:46:20.351Z,17.34
2022-09-15T17:48:48.713Z,17.30
2022-09-15T17:51:17.984Z,17.26
2022-09-15T17:53:47.509Z,17.23
2022-09-15T17:56:15.791Z,17.22
2022-09-15T17:58:45.094Z,17.22
2022-09-15T18:01:14.635Z,17.20
2022-09-15T18:03:45.323Z,17.16
2022-09-15T18:06:14.421Z,17.09
2022-09-15T18:08:43.017Z,17.07
2022-09-15T18:11:15.054Z,17.05
2022-09-15T18:13:43.404Z,17.02
2022-09-15T18:16:14.292Z,16.97
2022-09-15T18:18:43.204Z,16.97
2022-09-15T18:21:25.375Z,17.00
2022-09-15T18:23:53.754Z,17.04
2022-09-15T18:26:26.199Z,17.07
2022-09-15T18:28:56.143Z,17.12
2022-09-15T18:31:24.803Z,17.17
2022-09-15T18:33:53.394Z,17.23
2022-09-15T18:36:21.689Z,17.24
2022-09-15T18:38:49.862Z,17.16
2022-09-15T18:41:18.753Z,17.10
2022-09-15T18:43:49.896Z,17.10
2022-09-15T18:46:18.779Z,17.13
2022-09-15T18:48:46.961Z,17.14
2022-09-15T18:51:23.727Z,17.13
2022-09-15T18:53:54.416Z,17.16
2022-09-15T18:56:22.848Z,17.20
2022-09-15T18:58:53.993Z,17.27
2022-09-15T19:01:23.234Z,17.30
2022-09-15T19:03:51.671Z,17.29
2022-09-15T19:06:19.742Z,17.29
2022-09-15T19:08:47.813Z,17.29
2022-09-15T19:11:16.304Z,17.34
2022-09-15T19:13:44.692Z,17.34
2022-09-15T19:16:12.980Z,17.32
2022-09-15T19:18:41.225Z,17.28
2022-09-15T19:21:11.858Z,17.26
2022-09-15T19:23:40.035Z,17.27
2022-09-15T19:26:13.837Z,17.28
2022-09-15T19:28:49.898Z,17.23
2022-09-15T19:31:18.532Z,17.20
2022-09-15T19:33:47.984Z,17.17
2022-09-15T19:36:28.017Z,17.10
2022-09-15T19:38:58.565Z,17.08
2022-09-15T19:41:27.255Z,17.08
2022-09-15T19:43:56.813Z,17.06
2022-09-15T19:46:25.717Z,17.05
2022-09-15T19:48:55.029Z,17.04
2022-09-15T19:51:23.976Z,17.05
2022-09-15T19:53:56.749Z,17.07
2022-09-15T19:56:29.094Z,17.05
2022-09-15T19:58:58.621Z,17.02
2022-09-15T20:01:28.890Z,17.00
2022-09-15T20:06:43.087Z,16.99
2022-09-15T20:09:11.158Z,16.96
2022-09-15T20:11:39.481Z,16.91
2022-09-15T20:14:07.434Z,16.86
2022-09-15T20:16:35.806Z,16.82
2022-09-15T20:19:05.237Z,16.78
2022-09-15T20:21:50.001Z,16.78
2022-09-15T20:24:20.870Z,16.77
2022-09-15T20:26:49.269Z,16.74
2022-09-15T20:29:17.954Z,16.71
2022-09-15T20:31:46.914Z,16.70
2022-09-15T20:34:15.493Z,16.69
2022-09-15T20:36:44.011Z,16.70
2022-09-15T20:39:15.030Z,16.68
2022-09-15T20:41:45.260Z,16.64
2022-09-15T20:44:14.607Z,16.62
2022-09-15T20:46:43.346Z,16.55
2022-09-15T20:49:12.353Z,16.53
2022-09-15T20:51:40.531Z,16.50
2022-09-15T20:54:10.978Z,16.48
2022-09-15T20:56:39.231Z,16.45
2022-09-15T20:59:10.649Z,16.44
2022-09-15T21:01:40.151Z,16.45
2022-09-15T21:04:09.998Z,16.42
2022-09-15T21:06:38.785Z,16.35
2022-09-15T21:09:07.676Z,16.28
2022-09-15T21:11:36.158Z,16.23
2022-09-15T21:14:04.331Z,16.25
2022-09-15T21:16:34.099Z,16.24
2022-09-15T21:19:02.625Z,16.21
2022-09-15T21:21:32.952Z,16.15
2022-09-15T21:24:07.459Z,16.10
2022-09-15T21:26:59.301Z,16.10
2022-09-15T21:29:28.645Z,16.12
2022-09-15T21:31:56.898Z,16.12
2022-09-15T21:34:25.153Z,16.13
2022-09-15T21:36:53.878Z,16.15
2022-09-15T21:39:22.217Z,16.18
2022-09-15T21:41:50.292Z,16.22
2022-09-15T21:44:18.359Z,16.17
2022-09-15T21:46:47.557Z,16.12
2022-09-15T21:49:18.190Z,16.10
2022-09-15T21:51:46.573Z,16.06
2022-09-15T21:54:15.253Z,16.06
2022-09-15T21:56:43.427Z,16.08
2022-09-15T21:59:11.579Z,16.08
2022-09-15T22:01:41.018Z,16.08
2022-09-15T22:04:10.815Z,16.08
2022-09-15T22:06:40.938Z,16.09
2022-09-15T22:09:13.717Z,16.09
2022-09-15T22:11:42.227Z,16.05
2022-09-15T22:14:10.585Z,16.04
2022-09-15T22:16:40.484Z,16.06
2022-09-15T22:19:11.141Z,16.06
2022-09-15T22:21:42.223Z,16.06
2022-09-15T22:24:13.031Z,16.03
2022-09-15T22:26:43.009Z,15.99
2022-09-15T22:29:11.601Z,15.98
2022-09-15T22:31:39.916Z,15.95
2022-09-15T22:34:08.050Z,15.91
2022-09-15T22:36:36.225Z,15.84
2022-09-15T22:39:05.830Z,15.80
2022-09-15T22:41:37.179Z,15.73
2022-09-15T22:44:06.686Z,15.69
2022-09-15T22:46:35.165Z,15.70
2022-09-15T22:49:03.339Z,15.74
2022-09-15T22:51:31.411Z,15.73
2022-09-15T22:54:03.168Z,15.66
2022-09-15T22:56:31.144Z,15.61
2022-09-15T22:58:59.515Z,15.54
2022-09-15T23:01:30.864Z,15.53
2022-09-15T23:04:02.112Z,15.56
2022-09-15T23:06:33.071Z,15.52
2022-09-15T23:09:05.632Z,15.48
2022-09-15T23:11:34.619Z,15.46
2022-09-15T23:14:03.790Z,15.46
2022-09-15T23:16:32.566Z,15.48
2022-09-15T23:19:00.983Z,15.50
2022-09-15T23:21:29.157Z,15.47
2022-09-15T23:23:57.638Z,15.45
2022-09-15T23:26:27.658Z,15.43
2022-09-15T23:28:56.062Z,15.45
2022-09-15T23:31:24.247Z,15.44
2022-09-15T23:33:52.381Z,15.40
2022-09-15T23:36:20.760Z,15.39
2022-09-15T23:38:49.481Z,15.38
2022-09-15T23:41:18.696Z,15.37
2022-09-15T23:43:47.413Z,15.40
2022-09-15T23:46:17.829Z,15.39
2022-09-15T23:48:46.033Z,15.33
2022-09-15T23:51:14.206Z,15.28
2022-09-15T23:53:42.585Z,15.25
2022-09-15T23:56:10.763Z,15.29
2022-09-15T23:58:39.227Z,15.29
